Time;durP1;ratioP1;P1;durP2;ratioP2;P2;SDS_P1;SDS_P2;PMS_P1;PMS_P2;Temp;Humidity;BMP_temperature;BMP_pressure;BME280_temperature;BME280_humidity;BME280_pressure;Samples;Min_cycle;Max_cycle;Signal;HPM_P1;HPM_P2
2022/02/17 00:00:09;;;;;;;40.80;18.75;;;;;;;5.77;100.00;149109.52;1783850;80;21517;-61
2022/02/17 00:02:38;;;;;;;46.18;18.70;;;;;;;5.74;100.00;149104.34;1779651;80;21534;-67
2022/02/17 00:05:06;;;;;;;38.63;16.97;;;;;;;5.72;100.00;149097.87;1779434;79;21027;-66
2022/02/17 00:07:34;;;;;;;38.75;17.67;;;;;;;5.71;100.00;149096.59;1771126;80;21000;-66
2022/02/17 00:10:03;;;;;;;36.53;17.10;;;;;;;5.72;100.00;149099.19;1781143;79;21168;-65
2022/02/17 00:12:30;;;;;;;38.10;16.50;;;;;;;5.72;100.00;149099.19;1781174;79;20937;-60
2022/02/17 00:14:58;;;;;;;38.70;16.42;;;;;;;5.72;100.00;149097.87;1783751;79;21298;-60
2022/02/17 00:17:25;;;;;;;39.63;17.23;;;;;;;5.72;100.00;149099.19;1774078;80;21080;-60
2022/02/17 00:19:52;;;;;;;33.98;16.80;;;;;;;5.71;100.00;149096.59;1784841;80;21518;-61
2022/02/17 00:22:19;;;;;;;37.55;16.57;;;;;;;5.70;100.00;149094.02;1785084;79;21458;-66
2022/02/17 00:24:46;;;;;;;38.33;16.77;;;;;;;5.70;100.00;149094.02;1732720;80;21031;-67
2022/02/17 00:27:12;;;;;;;31.00;16.02;;;;;;;5.69;100.00;149091.44;1755364;80;21087;-61
2022/02/17 00:29:39;;;;;;;42.83;17.15;;;;;;;5.67;100.00;149086.27;1784225;79;21052;-67
2022/02/17 00:32:07;;;;;;;39.55;16.02;;;;;;;5.67;100.00;149084.95;1784795;79;21059;-66
2022/02/17 00:34:34;;;;;;;41.20;16.05;;;;;;;5.65;100.00;149081.09;1784019;80;21765;-61
2022/02/17 00:37:03;;;;;;;36.30;15.48;;;;;;;5.65;100.00;149079.78;1783854;80;21052;-67
2022/02/17 00:39:33;;;;;;;35.03;15.95;;;;;;;5.64;100.00;149078.52;1783429;78;20933;-66
2022/02/17 00:42:00;;;;;;;39.40;16.30;;;;;;;5.63;100.00;149075.89;1782902;79;21111;-59
2022/02/17 00:44:27;;;;;;;43.33;16.75;;;;;;;5.63;100.00;149074.63;1780348;79;21119;-66
2022/02/17 00:46:57;;;;;;;41.80;16.52;;;;;;;5.63;100.00;149074.63;1784061;80;21114;-62
2022/02/17 00:49:26;;;;;;;31.62;14.98;;;;;;;5.64;100.00;149078.52;1779481;80;21506;-61
2022/02/17 00:51:54;;;;;;;33.85;16.00;;;;;;;5.64;100.00;149077.20;1777861;80;21032;-60
2022/02/17 00:54:22;;;;;;;40.10;15.43;;;;;;;5.63;100.00;149075.89;1783999;79;21070;-61
2022/02/17 00:56:49;;;;;;;36.65;15.53;;;;;;;5.64;100.00;149078.52;1785001;79;21099;-61
2022/02/17 00:59:16;;;;;;;34.45;14.80;;;;;;;5.65;100.00;149081.09;1782236;80;21107;-60
2022/02/17 01:01:47;;;;;;;38.00;16.05;;;;;;;5.65;100.00;149081.09;1782323;79;21482;-60
2022/02/17 01:04:16;;;;;;;35.58;15.00;;;;;;;5.67;100.00;149084.95;1782504;79;21010;-60
2022/02/17 01:06:43;;;;;;;32.30;15.23;;;;;;;5.66;100.00;149083.69;1773033;78;21036;-61
2022/02/17 01:09:11;;;;;;;39.05;15.40;;;;;;;5.66;100.00;149083.69;1784672;80;20984;-66
2022/02/17 01:11:37;;;;;;;39.53;15.50;;;;;;;5.67;100.00;149086.27;1794852;79;21789;-67
2022/02/17 01:14:05;;;;;;;32.85;14.78;;;;;;;5.68;100.00;149088.84;1791405;79;21501;-61
2022/02/17 01:16:32;;;;;;;37.48;15.32;;;;;;;5.70;100.00;149094.02;1763944;80;21052;-66
2022/02/17 01:19:00;;;;;;;35.13;15.15;;;;;;;5.71;100.00;149096.59;1780497;79;21042;-67
2022/02/17 01:21:27;;;;;;;34.38;15.68;;;;;;;5.71;100.00;149096.59;1779019;79;21036;-66
2022/02/17 01:23:54;;;;;;;44.33;15.60;;;;;;;5.70;100.00;149094.02;1780506;80;21557;-67
2022/02/17 01:26:21;;;;;;;39.18;15.25;;;;;;;5.70;100.00;149094.02;1783806;80;21953;-67
2022/02/17 01:28:50;;;;;;;32.85;14.63;;;;;;;5.69;100.00;149091.44;1780477;80;20985;-66
2022/02/17 01:31:18;;;;;;;32.88;14.73;;;;;;;5.67;100.00;149086.27;1775735;80;21082;-60
2022/02/17 01:33:47;;;;;;;29.37;14.85;;;;;;;5.65;100.00;149081.09;1779052;80;21269;-66
2022/02/17 01:36:15;;;;;;;36.05;14.85;;;;;;;5.62;100.00;149073.31;1781043;79;21618;-65
2022/02/17 01:38:44;;;;;;;34.38;16.40;;;;;;;5.57;100.00;149061.70;1746510;80;21147;-66
2022/02/17 01:41:11;;;;;;;38.53;15.60;;;;;;;5.55;100.00;149055.22;1780781;79;21071;-60
2022/02/17 01:43:38;;;;;;;35.43;15.05;;;;;;;5.52;100.00;149047.47;1752148;80;21510;-60
2022/02/17 01:46:05;;;;;;;31.82;15.43;;;;;;;5.51;100.00;149044.89;1718849;83;21041;-60
2022/02/17 01:48:33;;;;;;;35.90;15.10;;;;;;;5.48;100.00;149037.14;1716474;82;21608;-60
2022/02/17 01:50:59;;;;;;;35.58;15.60;;;;;;;5.45;100.00;149031.97;1718044;83;21073;-60
2022/02/17 01:53:30;;;;;;;39.18;15.60;;;;;;;5.42;100.00;149024.22;1720931;83;21010;-67
2022/02/17 01:55:57;;;;;;;35.58;15.72;;;;;;;5.41;100.00;149021.59;1721891;83;21109;-66
2022/02/17 01:58:28;;;;;;;37.05;15.25;;;;;;;5.40;100.00;149019.00;1704537;84;21017;-66
2022/02/17 02:00:56;;;;;;;37.33;15.18;;;;;;;5.39;100.00;149016.42;1705956;83;21661;-60
2022/02/17 02:03:24;;;;;;;33.63;15.50;;;;;;;5.39;100.00;149015.16;1744020;80;21012;-60
2022/02/17 02:05:55;;;;;;;40.48;16.12;;;;;;;5.39;100.00;149015.16;1739366;81;21490;-60
2022/02/17 02:08:22;;;;;;;29.87;15.43;;;;;;;5.37;100.00;149009.98;1756809;81;21115;-60
2022/02/17 02:10:50;;;;;;;45.83;15.40;;;;;;;5.36;100.00;149008.67;1774118;79;21467;-60
2022/02/17 02:13:17;;;;;;;37.35;15.63;;;;;;;5.36;100.00;149008.67;1767211;81;23217;-60
2022/02/17 02:15:53;;;;;;;30.62;14.40;;;;;;;5.34;100.00;149003.52;1766641;81;21395;-61
2022/02/17 02:18:22;;;;;;;33.92;16.48;;;;;;;5.35;100.00;149006.09;1767343;81;21012;-61
2022/02/17 02:20:57;;;;;;;31.60;14.55;;;;;;;5.35;100.00;149006.09;1767895;81;20965;-60
2022/02/17 02:23:35;;;;;;;39.18;16.15;;;;;;;5.35;100.00;149004.83;1762740;81;21088;-60
2022/02/17 02:26:04;;;;;;;35.43;15.28;;;;;;;5.35;100.00;149004.83;1769712;79;22363;-60
2022/02/17 02:28:33;;;;;;;36.98;14.33;;;;;;;5.35;100.00;149004.83;1770492;81;21041;-60
2022/02/17 02:31:01;;;;;;;38.83;16.07;;;;;;;5.37;100.00;149011.25;1768841;81;21075;-62
2022/02/17 02:33:28;;;;;;;37.55;14.68;;;;;;;5.37;100.00;149009.98;1767447;79;20942;-60
2022/02/17 02:35:56;;;;;;;37.23;15.28;;;;;;;5.37;100.00;149009.98;1769125;80;20969;-60
2022/02/17 02:38:24;;;;;;;39.23;16.00;;;;;;;5.35;100.00;149006.09;1755852;81;21912;-61
2022/02/17 02:40:51;;;;;;;36.80;15.00;;;;;;;5.35;100.00;149006.09;1768213;81;21083;-66
2022/02/17 02:43:29;;;;;;;29.95;13.85;;;;;;;5.34;100.00;149003.52;1747245;81;20966;-66
2022/02/17 02:45:56;;;;;;;40.12;13.45;;;;;;;5.36;100.00;149008.67;1741755;80;21044;-66
2022/02/17 02:48:23;;;;;;;31.77;13.72;;;;;;;5.37;100.00;149011.25;1776952;79;21103;-67
2022/02/17 02:50:50;;;;;;;36.88;13.40;;;;;;;5.38;100.00;149013.84;1774412;79;21557;-66
2022/02/17 02:53:21;;;;;;;36.77;14.45;;;;;;;5.40;100.00;149019.00;1776883;78;21087;-66
2022/02/17 02:55:49;;;;;;;35.60;15.03;;;;;;;5.43;100.00;149026.81;1775371;80;21076;-66
2022/02/17 02:58:18;;;;;;;34.88;12.98;;;;;;;5.49;100.00;149040.98;1774652;80;21074;-66
2022/02/17 03:00:47;;;;;;;37.33;15.18;;;;;;;5.54;100.00;149052.64;1756642;80;21092;-68
2022/02/17 03:03:14;;;;;;;33.83;12.95;;;;;;;5.54;100.00;149053.95;1775610;80;21641;-67
2022/02/17 03:05:41;;;;;;;32.38;13.00;;;;;;;5.60;100.00;149068.13;1777640;80;21462;-66
2022/02/17 03:08:08;;;;;;;35.23;12.95;;;;;;;5.60;100.00;149068.13;1777611;79;20946;-67
2022/02/17 03:10:35;;;;;;;33.95;13.83;;;;;;;5.63;100.00;149075.89;1779562;78;20974;-66
2022/02/17 03:13:03;;;;;;;31.85;13.53;;;;;;;5.65;100.00;149079.78;1778471;79;21107;-66
2022/02/17 03:15:31;;;;;;;36.58;13.93;;;;;;;5.64;100.00;149078.52;1776749;79;21342;-66
2022/02/17 03:17:58;;;;;;;29.12;12.23;;;;;;;5.64;100.00;149078.52;1777775;79;21179;-67
2022/02/17 03:20:25;;;;;;;36.35;12.95;;;;;;;5.69;100.00;149090.12;1779034;80;21045;-66
2022/02/17 03:22:52;;;;;;;28.45;12.43;;;;;;;5.71;100.00;149096.59;1760720;80;21088;-67
2022/02/17 03:25:19;;;;;;;30.82;12.63;;;;;;;5.73;100.00;149101.77;1776957;80;21047;-67
2022/02/17 03:27:47;;;;;;;32.83;12.65;;;;;;;5.75;100.00;149105.67;1775803;80;20952;-66
2022/02/17 03:30:25;;;;;;;32.40;12.65;;;;;;;5.77;100.00;149109.52;1742146;80;21062;-66
2022/02/17 03:32:53;;;;;;;31.07;11.65;;;;;;;5.78;100.00;149112.11;1783919;79;21017;-66
2022/02/17 03:35:20;;;;;;;33.18;12.15;;;;;;;5.81;100.00;149119.86;1779900;79;21452;-66
2022/02/17 03:37:47;;;;;;;39.80;13.70;;;;;;;5.81;100.00;149119.86;1778175;79;21039;-67
2022/02/17 03:40:15;;;;;;;34.13;12.80;;;;;;;5.84;100.00;149128.92;1751181;80;21127;-66
2022/02/17 03:42:44;;;;;;;37.50;14.20;;;;;;;5.85;100.00;149130.19;1772717;80;21084;-67
2022/02/17 03:45:11;;;;;;;31.87;13.58;;;;;;;5.86;100.00;149132.81;1777304;80;21426;-66
2022/02/17 03:47:39;;;;;;;35.98;13.78;;;;;;;5.85;100.00;149130.19;1756231;79;21560;-67
2022/02/17 03:50:09;;;;;;;31.15;12.93;;;;;;;5.82;100.00;149123.75;1724117;82;21029;-68
2022/02/17 03:52:38;;;;;;;29.07;13.22;;;;;;;5.80;100.00;149118.59;1713389;83;21164;-69
2022/02/17 03:55:15;;;;;;;37.78;14.87;;;;;;;5.77;100.00;149109.52;1762101;80;21007;-67
2022/02/17 03:57:44;;;;;;;34.03;14.03;;;;;;;5.72;100.00;149099.19;1779890;79;21006;-68
2022/02/17 04:00:14;;;;;;;33.78;15.13;;;;;;;5.68;100.00;149088.84;1778203;79;22248;-66
2022/02/17 04:02:44;;;;;;;32.05;13.88;;;;;;;5.66;100.00;149082.38;1779619;80;21231;-66
2022/02/17 04:05:12;;;;;;;41.05;14.90;;;;;;;5.64;100.00;149078.52;1779197;80;21722;-66
2022/02/17 04:07:40;;;;;;;40.78;15.30;;;;;;;5.61;100.00;149069.45;1780599;78;20993;-66
2022/02/17 04:10:15;;;;;;;35.43;14.80;;;;;;;5.61;100.00;149070.72;1786544;79;21008;-66
2022/02/17 04:12:42;;;;;;;40.30;14.95;;;;;;;5.59;100.00;149065.55;1780347;79;21600;-65
2022/02/17 04:15:11;;;;;;;38.83;15.80;;;;;;;5.61;100.00;149069.45;1782067;80;21044;-67
2022/02/17 04:17:39;;;;;;;37.25;14.90;;;;;;;5.61;100.00;149070.72;1781687;80;21415;-67
2022/02/17 04:20:15;;;;;;;42.00;16.17;;;;;;;5.62;100.00;149073.31;1772023;80;21092;-67
2022/02/17 04:22:44;;;;;;;35.43;14.85;;;;;;;5.64;100.00;149077.20;1747533;80;21526;-67
2022/02/17 04:25:19;;;;;;;34.25;14.33;;;;;;;5.66;100.00;149082.38;1782464;79;21060;-66
2022/02/17 04:27:47;;;;;;;38.10;16.42;;;;;;;5.68;100.00;149087.53;1782273;79;21056;-67
2022/02/17 04:30:14;;;;;;;47.50;17.50;;;;;;;5.68;100.00;149088.84;1777971;79;21525;-66
2022/02/17 04:32:41;;;;;;;37.48;15.28;;;;;;;5.70;100.00;149094.02;1777776;80;21086;-66
2022/02/17 04:35:09;;;;;;;37.50;14.87;;;;;;;5.73;100.00;149101.77;1772834;80;21478;-67
2022/02/17 04:37:37;;;;;;;38.70;16.87;;;;;;;5.74;100.00;149104.34;1774779;78;21057;-68
2022/02/17 04:40:06;;;;;;;36.38;15.90;;;;;;;5.75;100.00;149105.67;1759563;78;21611;-65
2022/02/17 04:42:36;;;;;;;32.98;15.60;;;;;;;5.76;100.00;149108.25;1770573;78;21080;-66
2022/02/17 04:45:07;;;;;;;38.13;16.30;;;;;;;5.78;100.00;149112.11;1765724;80;21717;-66
2022/02/17 04:47:34;;;;;;;37.40;16.23;;;;;;;5.78;100.00;149112.11;1756353;81;21040;-66
2022/02/17 04:50:01;;;;;;;36.35;17.60;;;;;;;5.77;100.00;149109.52;1774439;80;21054;-67
2022/02/17 04:52:27;;;;;;;34.85;15.75;;;;;;;5.77;100.00;149109.52;1784572;78;20972;-66
2022/02/17 04:54:54;;;;;;;40.38;16.95;;;;;;;5.76;100.00;149106.94;1786093;80;21133;-67
2022/02/17 04:57:21;;;;;;;36.80;15.63;;;;;;;5.75;100.00;149105.67;1786215;80;21059;-66
2022/02/17 04:59:49;;;;;;;40.58;16.82;;;;;;;5.76;100.00;149106.94;1780755;80;21698;-67
2022/02/17 05:02:16;;;;;;;42.73;15.93;;;;;;;5.76;100.00;149106.94;1784295;80;21232;-66
2022/02/17 05:04:44;;;;;;;38.45;16.57;;;;;;;5.75;100.00;149105.67;1782545;80;21076;-66
2022/02/17 05:07:13;;;;;;;37.58;16.40;;;;;;;5.78;100.00;149112.11;1784106;79;21121;-67
2022/02/17 05:09:40;;;;;;;36.42;16.62;;;;;;;5.79;100.00;149114.69;1785973;80;21072;-67
2022/02/17 05:12:07;;;;;;;39.58;16.27;;;;;;;5.81;100.00;149119.86;1788519;78;21088;-67
2022/02/17 05:14:35;;;;;;;34.65;15.93;;;;;;;5.82;100.00;149122.44;1783350;80;21067;-66
2022/02/17 05:17:04;;;;;;;34.55;15.43;;;;;;;5.85;100.00;149130.19;1783107;80;21094;-66
2022/02/17 05:19:33;;;;;;;41.15;16.65;;;;;;;5.86;100.00;149132.81;1781316;80;21106;-65
2022/02/17 05:22:18;;;;;;;42.53;15.43;;;;;;;5.86;100.00;149132.81;1777722;80;21016;-65
2022/02/17 05:24:46;;;;;;;37.73;15.93;;;;;;;5.86;100.00;149134.09;1781464;80;21105;-65
2022/02/17 05:27:15;;;;;;;34.65;16.35;;;;;;;5.86;100.00;149134.09;1783186;80;21084;-67
2022/02/17 05:29:46;;;;;;;38.57;16.60;;;;;;;5.86;100.00;149134.09;1780354;80;21047;-66
2022/02/17 05:32:23;;;;;;;29.18;14.80;;;;;;;5.88;100.00;149138.00;1687721;83;21502;-65
2022/02/17 05:34:58;;;;;;;41.83;16.00;;;;;;;5.89;100.00;149140.58;1755934;80;21406;-65
2022/02/17 05:37:43;;;;;;;41.55;16.52;;;;;;;5.92;100.00;149148.33;1786035;78;20999;-66
2022/02/17 05:40:18;;;;;;;35.92;15.60;;;;;;;5.95;100.00;149154.75;1785046;79;21067;-66
2022/02/17 05:42:44;;;;;;;38.85;15.78;;;;;;;5.98;100.00;149163.83;1784583;80;21025;-66
2022/02/17 05:45:13;;;;;;;38.00;16.27;;;;;;;5.99;100.00;149166.41;1786697;79;22268;-60
2022/02/17 05:47:41;;;;;;;37.45;15.70;;;;;;;6.02;100.00;149172.95;1783128;80;21031;-68
2022/02/17 05:50:09;;;;;;;33.10;15.93;;;;;;;6.06;100.00;149183.28;1783713;79;21508;-66
2022/02/17 05:52:36;;;;;;;34.45;15.55;;;;;;;6.08;100.00;149187.14;1774234;80;21067;-66
2022/02/17 05:55:06;;;;;;;39.38;15.75;;;;;;;6.09;100.00;149189.77;1778199;80;21667;-67
2022/02/17 05:57:34;;;;;;;38.20;16.90;;;;;;;6.08;100.00;149187.14;1785680;79;21481;-66
2022/02/17 06:00:01;;;;;;;35.10;15.98;;;;;;;6.11;100.00;149194.94;1785848;80;21004;-67
2022/02/17 06:02:28;;;;;;;45.20;16.65;;;;;;;6.18;100.00;149213.03;1785774;80;21008;-59
2022/02/17 06:04:55;;;;;;;35.17;15.50;;;;;;;6.24;100.00;149228.53;1786016;80;21097;-59
2022/02/17 06:07:21;;;;;;;38.73;16.35;;;;;;;6.34;100.00;149251.84;1785718;80;21065;-61
2022/02/17 06:09:49;;;;;;;33.78;16.17;;;;;;;6.40;100.00;149267.36;1784659;79;21880;-59
2022/02/17 06:12:16;;;;;;;36.03;15.35;;;;;;;6.49;100.00;149290.63;1790481;78;21037;-60
2022/02/17 06:14:43;;;;;;;39.20;14.70;;;;;;;6.58;100.00;149313.94;1782911;80;21723;-67
2022/02/17 06:17:13;;;;;;;35.45;15.00;;;;;;;6.68;100.00;149337.20;1783224;79;21040;-66
2022/02/17 06:19:40;;;;;;;30.65;14.43;;;;;;;6.74;100.00;149352.72;1784857;78;21591;-67
2022/02/17 06:22:07;;;;;;;30.97;15.10;;;;;;;6.81;100.00;149370.88;1785375;79;21936;-66
2022/02/17 06:24:34;;;;;;;34.70;15.23;;;;;;;6.90;100.00;149392.87;1786435;79;20984;-67
2022/02/17 06:27:04;;;;;;;30.20;15.15;;;;;;;6.99;100.00;149414.88;1781984;80;21093;-67
2022/02/17 06:29:31;;;;;;;35.52;15.85;;;;;;;7.05;100.00;149430.41;1751449;81;21023;-67
2022/02/17 06:31:58;;;;;;;34.85;16.02;;;;;;;7.15;100.00;149454.98;1734734;82;22196;-66
2022/02/17 06:34:25;;;;;;;42.17;15.70;;;;;;;7.22;100.00;149473.09;1733389;82;21125;-66
2022/02/17 06:36:52;;;;;;;35.70;14.63;;;;;;;7.28;100.00;149487.34;1716844;83;21593;-61
2022/02/17 06:39:18;;;;;;;29.75;14.78;;;;;;;7.36;100.00;149508.03;1728764;81;21024;-61
2022/02/17 06:41:45;;;;;;;33.83;14.68;;;;;;;7.41;100.00;149521.03;1740793;81;20980;-60
2022/02/17 06:44:12;;;;;;;29.82;14.47;;;;;;;7.48;100.00;149536.55;1750012;81;21254;-66
2022/02/17 06:46:39;;;;;;;32.65;15.25;;;;;;;7.55;100.00;149554.66;1736457;81;21175;-59
2022/02/17 06:49:07;;;;;;;33.28;15.00;;;;;;;7.60;100.00;149568.91;1737720;81;21182;-59
2022/02/17 06:51:34;;;;;;;33.42;13.80;;;;;;;7.66;100.00;149583.17;1734313;81;21120;-60
2022/02/17 06:59:52;;;;;;;30.30;13.75;;;;;;;7.74;100.00;149602.59;1761717;79;21592;-60
2022/02/17 07:02:26;;;;;;;27.70;14.55;;;;;;;7.69;100.00;149590.94;1763048;79;21435;-67
2022/02/17 07:04:53;;;;;;;37.95;14.38;;;;;;;7.61;100.00;149570.19;1798512;79;21044;-60
2022/02/17 07:07:20;;;;;;;33.08;13.95;;;;;;;7.51;100.00;149544.31;1766534;79;21065;-60
2022/02/17 07:09:47;;;;;;;31.30;14.28;;;;;;;7.42;100.00;149522.30;1774247;79;21803;-61
2022/02/17 07:12:15;;;;;;;31.42;13.38;;;;;;;7.33;100.00;149499.02;1761866;79;21001;-67
2022/02/17 07:14:42;;;;;;;35.52;14.75;;;;;;;7.27;100.00;149484.77;1762178;79;21076;-60
2022/02/17 07:17:10;;;;;;;33.88;13.98;;;;;;;7.22;100.00;149471.83;1767159;79;21020;-65
2022/02/17 07:19:38;;;;;;;25.77;13.80;;;;;;;7.17;100.00;149461.44;1745680;80;20937;-60
2022/02/17 07:22:05;;;;;;;40.98;14.05;;;;;;;7.14;100.00;149452.41;1764418;80;21501;-60
2022/02/17 07:24:32;;;;;;;33.35;14.05;;;;;;;7.09;100.00;149440.75;1765304;79;22171;-59
2022/02/17 07:26:59;;;;;;;31.97;14.10;;;;;;;7.06;100.00;149432.98;1762698;79;21046;-60
2022/02/17 07:29:26;;;;;;;28.32;13.08;;;;;;;7.05;100.00;149430.41;1767342;79;21036;-65
2022/02/17 07:31:54;;;;;;;31.45;13.60;;;;;;;7.06;100.00;149432.98;1764171;79;21048;-67
2022/02/17 07:34:20;;;;;;;33.08;13.65;;;;;;;7.11;100.00;149445.91;1771373;79;21021;-64
2022/02/17 07:36:47;;;;;;;30.80;14.00;;;;;;;7.18;100.00;149462.75;1764135;80;21534;-67
2022/02/17 07:39:14;;;;;;;36.08;14.13;;;;;;;7.31;100.00;149495.11;1772389;79;21506;-66
2022/02/17 07:41:41;;;;;;;30.77;13.00;;;;;;;7.43;100.00;149526.20;1772673;79;21416;-61
2022/02/17 07:44:08;;;;;;;28.80;12.98;;;;;;;7.55;100.00;149554.66;1769583;79;21079;-60
2022/02/17 07:46:36;;;;;;;32.42;13.43;;;;;;;7.64;100.00;149578.00;1764041;79;21032;-61
2022/02/17 07:49:03;;;;;;;26.77;13.22;;;;;;;7.70;100.00;149592.20;1768639;80;21073;-61
2022/02/17 07:51:30;;;;;;;31.65;12.93;;;;;;;7.80;100.00;149616.81;1769865;79;21037;-66
2022/02/17 07:53:58;;;;;;;28.52;13.45;;;;;;;7.87;100.00;149634.97;1768930;79;21127;-59
2022/02/17 07:56:30;;;;;;;32.67;13.13;;;;;;;7.92;100.00;149646.59;1758077;80;21553;-60
2022/02/17 07:58:57;;;;;;;34.00;13.78;;;;;;;7.98;100.00;149662.16;1767760;79;21060;-66
2022/02/17 08:01:25;;;;;;;34.83;13.75;;;;;;;8.05;99.60;149680.28;1766076;79;21052;-68
2022/02/17 08:03:52;;;;;;;30.95;12.75;;;;;;;8.09;99.19;149689.38;1764912;79;21097;-66
2022/02/17 08:06:18;;;;;;;24.72;12.18;;;;;;;8.14;98.52;149702.31;1750431;79;21047;-65
2022/02/17 08:08:48;;;;;;;28.70;12.93;;;;;;;8.17;98.01;149710.08;1765185;79;21003;-66
2022/02/17 08:11:15;;;;;;;28.20;12.13;;;;;;;8.18;97.79;149712.66;1763829;79;21141;-66
2022/02/17 08:13:42;;;;;;;31.05;11.93;;;;;;;8.22;97.62;149723.02;1769505;79;21686;-61
2022/02/17 08:16:10;;;;;;;30.27;12.03;;;;;;;8.26;97.29;149733.38;1766925;80;21052;-60
2022/02/17 08:18:39;;;;;;;30.08;11.48;;;;;;;8.29;96.79;149741.19;1769123;80;21021;-62
2022/02/17 08:21:08;;;;;;;24.87;11.53;;;;;;;8.30;96.39;149742.45;1765666;79;21100;-63
2022/02/17 08:23:38;;;;;;;31.17;12.33;;;;;;;8.30;96.22;149743.78;1772670;79;21489;-61
2022/02/17 08:26:06;;;;;;;30.40;13.70;;;;;;;8.30;96.28;149743.78;1762576;79;21057;-61
2022/02/17 08:28:35;;;;;;;29.85;11.90;;;;;;;8.34;96.16;149751.53;1771450;79;21436;-62
2022/02/17 08:31:03;;;;;;;24.70;12.60;;;;;;;8.35;96.05;149755.41;1772077;79;21012;-61
2022/02/17 08:33:30;;;;;;;34.48;13.75;;;;;;;8.39;95.88;149764.48;1759475;79;21135;-59
2022/02/17 08:35:57;;;;;;;32.90;13.22;;;;;;;8.42;95.95;149772.25;1756908;79;21053;-60
2022/02/17 08:38:31;;;;;;;24.82;12.82;;;;;;;8.46;95.90;149782.61;1761611;79;21915;-62
2022/02/17 08:40:54;;;;;;;34.00;13.55;;;;;;;8.52;95.82;149798.23;1755894;79;21107;-60
2022/02/17 08:43:22;;;;;;;32.17;14.20;;;;;;;8.57;95.64;149811.19;1757902;79;21077;-60
2022/02/17 08:45:48;;;;;;;32.75;13.98;;;;;;;8.60;95.52;149817.63;1758493;78;21625;-60
2022/02/17 08:48:17;;;;;;;29.07;14.03;;;;;;;8.66;95.45;149833.22;1773934;78;21110;-60
2022/02/17 08:50:44;;;;;;;33.92;13.15;;;;;;;8.72;95.25;149848.75;1772065;78;21940;-60
2022/02/17 08:53:11;;;;;;;33.13;14.35;;;;;;;8.78;94.87;149861.70;1773586;78;21447;-66
2022/02/17 08:55:39;;;;;;;30.40;13.40;;;;;;;8.79;94.68;149865.61;1777327;78;21087;-66
2022/02/17 08:58:07;;;;;;;32.00;13.88;;;;;;;8.82;94.62;149873.38;1781864;78;21056;-66
2022/02/17 09:00:36;;;;;;;27.80;13.30;;;;;;;8.86;94.47;149883.73;1775298;78;21093;-67
2022/02/17 09:03:12;;;;;;;28.55;13.98;;;;;;;8.89;94.15;149891.50;1776294;78;21684;-67
2022/02/17 09:05:41;;;;;;;22.48;12.60;;;;;;;8.91;94.01;149894.09;1776171;78;20956;-67
2022/02/17 09:08:09;;;;;;;31.07;13.95;;;;;;;8.92;93.94;149896.69;1775449;78;21098;-66
2022/02/17 09:10:41;;;;;;;24.55;12.82;;;;;;;8.95;93.77;149904.47;1763163;78;21095;-65
2022/02/17 09:13:08;;;;;;;35.43;13.80;;;;;;;8.95;93.55;149904.47;1774006;78;21034;-64
2022/02/17 09:15:40;;;;;;;29.70;14.00;;;;;;;8.95;93.50;149904.47;1781112;78;21115;-65
2022/02/17 09:18:14;;;;;;;30.17;14.20;;;;;;;8.98;93.28;149912.28;1780434;78;21105;-66
2022/02/17 09:20:41;;;;;;;25.10;12.65;;;;;;;8.98;93.09;149912.28;1770520;78;21095;-65
2022/02/17 09:23:08;;;;;;;25.37;13.10;;;;;;;8.97;93.01;149910.97;1756521;78;21028;-65
2022/02/17 09:25:36;;;;;;;30.72;13.48;;;;;;;8.98;92.89;149912.28;1771431;78;21098;-65
2022/02/17 09:28:06;;;;;;;40.78;14.73;;;;;;;8.99;92.77;149914.87;1775116;78;21989;-67
2022/02/17 09:30:33;;;;;;;34.53;13.45;;;;;;;8.99;92.54;149914.87;1774076;78;21085;-64
2022/02/17 09:32:59;;;;;;;28.45;12.85;;;;;;;8.99;92.38;149914.87;1778401;78;21074;-64
2022/02/17 09:35:26;;;;;;;26.95;13.65;;;;;;;8.97;92.43;149909.69;1779492;78;21028;-65
2022/02/17 09:37:53;;;;;;;35.55;13.15;;;;;;;8.96;92.47;149907.09;1781295;78;21444;-65
2022/02/17 09:40:20;;;;;;;27.95;12.10;;;;;;;8.95;92.33;149905.78;1791419;78;21094;-65
2022/02/17 09:42:47;;;;;;;28.32;12.03;;;;;;;8.91;92.08;149894.09;1779754;78;21024;-65
2022/02/17 09:45:14;;;;;;;29.52;12.35;;;;;;;8.84;92.01;149878.56;1782732;78;21676;-64
2022/02/17 09:47:42;;;;;;;27.05;12.03;;;;;;;8.79;92.11;149865.61;1783821;78;21024;-64
2022/02/17 09:50:12;;;;;;;31.65;12.60;;;;;;;8.78;92.38;149861.70;1780784;78;21091;-64
2022/02/17 09:52:42;;;;;;;28.35;13.53;;;;;;;8.74;92.50;149852.66;1780176;78;21132;-63
2022/02/17 09:55:12;;;;;;;27.20;12.07;;;;;;;8.71;92.91;149844.84;1768607;79;21041;-64
2022/02/17 09:57:41;;;;;;;35.08;14.65;;;;;;;8.71;93.21;149844.84;1768742;79;21060;-65
2022/02/17 10:00:11;;;;;;;31.77;14.38;;;;;;;8.70;93.44;149843.58;1779153;79;21056;-66
2022/02/17 10:02:42;;;;;;;27.90;14.05;;;;;;;8.71;93.84;149844.84;1765680;78;21044;-67
2022/02/17 10:05:12;;;;;;;36.45;14.95;;;;;;;8.73;94.02;149850.03;1786829;78;21107;-64
2022/02/17 10:07:42;;;;;;;34.63;14.40;;;;;;;8.74;94.22;149853.94;1778802;78;21489;-63
2022/02/17 10:10:15;;;;;;;30.55;13.50;;;;;;;8.76;94.27;149856.53;1773945;78;20930;-65
2022/02/17 10:12:56;;;;;;;31.37;14.73;;;;;;;8.80;94.42;149866.88;1780237;79;20913;-67
2022/02/17 10:15:38;;;;;;;33.53;14.90;;;;;;;8.81;94.43;149870.80;1776410;78;21032;-65
2022/02/17 10:18:14;;;;;;;39.18;15.60;;;;;;;8.82;94.50;149873.38;1778187;78;21501;-67
2022/02/17 10:21:03;;;;;;;32.70;14.43;;;;;;;8.85;94.71;149881.16;1775142;79;21542;-66
2022/02/17 10:23:49;;;;;;;32.03;14.53;;;;;;;8.90;94.72;149892.83;1774943;78;22250;-68
2022/02/17 10:26:20;;;;;;;35.52;15.93;;;;;;;8.95;94.75;149904.47;1776254;78;21062;-71
2022/02/17 10:28:57;;;;;;;29.75;15.28;;;;;;;8.99;94.62;149914.87;1773095;78;21064;-72
2022/02/17 10:31:36;;;;;;;32.58;15.88;;;;;;;9.01;94.31;149921.31;1776669;78;21947;-70
2022/02/17 10:34:05;;;;;;;31.77;14.95;;;;;;;9.01;94.20;149920.05;1781401;79;38485;-59
2022/02/17 10:36:37;;;;;;;33.55;15.45;;;;;;;9.00;94.31;149918.73;1782031;78;21055;-60
2022/02/17 10:39:19;;;;;;;38.73;16.67;;;;;;;9.00;94.15;149917.47;1782279;78;21527;-72
2022/02/17 10:41:50;;;;;;;31.68;15.98;;;;;;;8.99;94.28;149914.87;1780651;78;21134;-69
2022/02/17 10:44:19;;;;;;;40.45;15.13;;;;;;;8.99;94.24;149914.87;1777868;79;21118;-61
2022/02/17 10:46:45;;;;;;;29.87;15.75;;;;;;;8.98;94.24;149912.28;1783556;80;21064;-60
2022/02/17 10:49:15;;;;;;;33.02;16.27;;;;;;;8.98;94.35;149912.28;1784998;78;21029;-60
2022/02/17 10:51:43;;;;;;;32.08;15.65;;;;;;;8.99;94.36;149914.87;1783462;78;21099;-59
2022/02/17 10:54:10;;;;;;;38.42;16.23;;;;;;;8.97;94.18;149910.97;1782060;78;21212;-61
2022/02/17 10:56:38;;;;;;;31.77;16.73;;;;;;;8.96;94.21;149907.09;1787629;78;21836;-60
2022/02/17 11:01:37;;;;;;;34.65;16.35;;;;;;;8.88;94.41;149888.92;1721793;79;21069;-60
2022/02/17 11:04:04;;;;;;;37.15;15.75;;;;;;;8.88;94.36;149888.92;1781111;78;21056;-60
2022/02/17 11:06:32;;;;;;;35.08;16.62;;;;;;;8.87;94.47;149885.06;1778999;78;21101;-59
2022/02/17 11:09:00;;;;;;;36.60;16.07;;;;;;;8.87;94.65;149886.33;1776976;78;21079;-60
2022/02/17 11:11:28;;;;;;;31.97;15.98;;;;;;;8.87;94.75;149886.33;1778838;78;21021;-61
2022/02/17 11:13:54;;;;;;;35.23;16.80;;;;;;;8.88;94.81;149887.66;1780179;78;21304;-60
2022/02/17 11:16:24;;;;;;;41.28;16.40;;;;;;;8.88;94.76;149888.92;1778421;78;21064;-60
2022/02/17 11:18:55;;;;;;;36.45;16.75;;;;;;;8.88;94.71;149888.92;1778443;78;21110;-71
2022/02/17 11:21:23;;;;;;;32.13;15.72;;;;;;;8.89;94.77;149891.50;1771763;78;21929;-59
2022/02/17 11:24:02;;;;;;;34.75;15.72;;;;;;;8.92;94.87;149896.69;1777166;78;21008;-59
2022/02/17 11:26:32;;;;;;;35.20;16.87;;;;;;;8.95;94.50;149905.78;1783660;78;20981;-61